Time;durP1;ratioP1;P1;durP2;ratioP2;P2;SDS_P1;SDS_P2;PMS_P1;PMS_P2;Temp;Humidity;BMP_temperature;BMP_pressure;BME280_temperature;BME280_humidity;BME280_pressure;Samples;Min_cycle;Max_cycle;Signal;HPM_P1;HPM_P2
2023/08/05 00:01:49;;;;;;;11.07;6.10;;;;;;;15.27;92.76;95562.34;4934932;29;20185;-84
2023/08/05 00:04:14;;;;;;;7.38;5.85;;;;;;;15.33;92.80;95563.47;4966029;28;20621;-85
2023/08/05 00:06:40;;;;;;;6.65;5.95;;;;;;;15.30;92.45;95565.44;4949474;28;20697;-85
2023/08/05 00:09:05;;;;;;;8.48;6.28;;;;;;;15.34;92.56;95570.31;4955836;28;20246;-84
2023/08/05 00:11:30;;;;;;;9.00;6.20;;;;;;;15.24;92.63;95568.75;4952805;28;20227;-85
2023/08/05 00:13:56;;;;;;;7.63;6.07;;;;;;;15.27;92.78;95568.38;4959148;28;20270;-85
2023/08/05 00:16:21;;;;;;;6.72;5.50;;;;;;;15.26;93.00;95568.56;4950464;28;20228;-84
2023/08/05 00:18:46;;;;;;;7.95;5.75;;;;;;;15.28;92.99;95577.91;4948432;28;20193;-85
2023/08/05 00:21:11;;;;;;;7.18;5.90;;;;;;;15.29;92.35;95576.09;4949253;28;20278;-85
2023/08/05 00:23:37;;;;;;;7.10;6.40;;;;;;;15.26;92.43;95569.38;4959672;28;20502;-84
2023/08/05 00:26:02;;;;;;;8.18;6.22;;;;;;;15.17;92.81;95578.28;4959067;28;20212;-86
2023/08/05 00:28:27;;;;;;;10.48;6.53;;;;;;;15.20;92.54;95579.75;4946652;28;20189;-84
2023/08/05 00:30:53;;;;;;;7.50;6.07;;;;;;;15.20;92.50;95574.53;4954678;28;20265;-85
2023/08/05 00:33:18;;;;;;;7.97;6.35;;;;;;;15.25;92.10;95572.19;4959733;28;20195;-84
2023/08/05 00:35:43;;;;;;;6.97;6.28;;;;;;;15.22;92.18;95570.75;4956992;28;20715;-85
2023/08/05 00:38:09;;;;;;;7.55;5.65;;;;;;;15.19;92.28;95573.69;4960130;28;20192;-85
2023/08/05 00:40:34;;;;;;;8.43;6.68;;;;;;;15.10;92.91;95573.91;4969867;28;20199;-84
2023/08/05 00:43:00;;;;;;;8.75;6.00;;;;;;;15.14;92.81;95570.00;4957901;28;20196;-85
2023/08/05 00:45:25;;;;;;;7.65;5.75;;;;;;;15.19;92.25;95567.63;4962022;28;20231;-84
2023/08/05 00:47:52;;;;;;;7.28;5.55;;;;;;;15.19;92.10;95562.41;4972904;28;20295;-84
2023/08/05 00:50:17;;;;;;;8.10;6.07;;;;;;;15.19;91.84;95563.22;4958036;28;20204;-85
2023/08/05 00:52:43;;;;;;;7.60;5.32;;;;;;;15.17;91.95;95567.81;4953617;28;20180;-84
2023/08/05 00:55:09;;;;;;;7.68;5.90;;;;;;;15.15;92.56;95567.19;4958326;28;20204;-84
2023/08/05 00:57:34;;;;;;;6.88;6.05;;;;;;;15.16;92.67;95568.81;4948036;28;20188;-84
2023/08/05 01:00:00;;;;;;;7.70;6.40;;;;;;;15.14;92.78;95564.75;4947559;29;20224;-84
2023/08/05 01:02:25;;;;;;;10.10;6.75;;;;;;;15.09;93.36;95559.22;4960708;28;20211;-84
2023/08/05 01:04:50;;;;;;;10.55;6.85;;;;;;;15.15;92.36;95551.50;4958803;28;20187;-84
2023/08/05 01:07:18;;;;;;;8.45;6.15;;;;;;;15.11;92.50;95549.41;4958888;28;20191;-84
2023/08/05 01:09:43;;;;;;;7.40;6.30;;;;;;;15.10;92.54;95543.34;4965684;28;20657;-84
2023/08/05 01:12:09;;;;;;;7.77;6.13;;;;;;;15.00;92.52;95530.50;4959433;28;20246;-84
2023/08/05 01:14:34;;;;;;;12.25;6.65;;;;;;;15.05;92.83;95529.19;4957065;28;20185;-83
2023/08/05 01:16:59;;;;;;;7.50;5.85;;;;;;;15.00;92.80;95525.28;4970920;28;20684;-84
2023/08/05 01:19:26;;;;;;;9.32;6.25;;;;;;;14.96;92.51;95518.78;4970170;28;20184;-84
2023/08/05 01:22:03;;;;;;;9.00;6.15;;;;;;;14.92;92.66;95517.50;4974926;28;20184;-83
2023/08/05 01:24:41;;;;;;;7.78;6.18;;;;;;;14.90;92.36;95524.72;4962628;28;20286;-84
2023/08/05 01:27:07;;;;;;;8.38;6.72;;;;;;;14.91;93.01;95528.94;4977071;28;20207;-84
2023/08/05 01:29:32;;;;;;;7.17;6.10;;;;;;;14.95;92.29;95532.03;4954245;28;20196;-84
2023/08/05 01:31:58;;;;;;;8.03;5.73;;;;;;;14.87;92.85;95532.91;4954813;28;20631;-85
2023/08/05 01:34:23;;;;;;;8.60;6.20;;;;;;;14.83;92.91;95531.63;4968134;28;20363;-85
2023/08/05 01:36:49;;;;;;;8.18;6.22;;;;;;;14.80;93.34;95542.44;4961394;28;20235;-85
2023/08/05 01:39:14;;;;;;;7.10;6.10;;;;;;;14.74;93.50;95541.31;4960469;28;20188;-84
2023/08/05 01:41:39;;;;;;;7.43;6.43;;;;;;;14.74;93.14;95535.28;4986296;28;20196;-84
2023/08/05 01:44:05;;;;;;;9.00;6.80;;;;;;;14.77;93.38;95534.94;4961225;28;20199;-84
2023/08/05 01:46:30;;;;;;;12.55;6.85;;;;;;;14.70;93.39;95531.41;4953145;28;20299;-84
2023/08/05 01:48:55;;;;;;;10.20;6.90;;;;;;;14.74;92.68;95538.69;4961487;28;20290;-84
2023/08/05 01:51:20;;;;;;;8.48;6.25;;;;;;;14.66;92.89;95540.56;4962209;28;20239;-85
2023/08/05 01:53:49;;;;;;;9.23;6.53;;;;;;;14.66;93.08;95541.38;4961804;28;20205;-86
2023/08/05 01:56:14;;;;;;;7.50;6.63;;;;;;;14.65;93.21;95538.94;4946150;29;20292;-84
2023/08/05 01:58:40;;;;;;;7.90;6.43;;;;;;;14.63;93.30;95551.34;4966230;28;20216;-85
2023/08/05 02:01:05;;;;;;;7.87;6.30;;;;;;;14.56;93.45;95539.97;4960702;28;20208;-85
2023/08/05 02:03:30;;;;;;;7.40;6.30;;;;;;;14.61;93.17;95540.28;4961106;28;20203;-85
2023/08/05 02:05:56;;;;;;;9.25;6.70;;;;;;;14.50;93.52;95531.03;4981532;28;20273;-85
2023/08/05 02:08:21;;;;;;;8.50;6.47;;;;;;;14.50;93.53;95531.03;4946508;29;20193;-85
2023/08/05 02:10:47;;;;;;;7.87;6.67;;;;;;;14.41;93.69;95532.84;4966859;28;20264;-85
2023/08/05 02:13:12;;;;;;;9.13;6.63;;;;;;;14.41;93.65;95530.22;4951754;28;20207;-85
2023/08/05 02:15:38;;;;;;;6.97;6.17;;;;;;;14.39;93.97;95536.59;4972575;28;20212;-84
2023/08/05 02:18:03;;;;;;;8.47;7.10;;;;;;;14.40;93.78;95536.44;4956839;28;20184;-84
2023/08/05 02:20:29;;;;;;;10.43;7.20;;;;;;;14.33;93.98;95535.50;4954667;28;20310;-83
2023/08/05 02:22:54;;;;;;;9.77;6.60;;;;;;;14.33;93.72;95530.28;4959888;28;20192;-84
2023/08/05 02:25:19;;;;;;;8.57;6.90;;;;;;;14.32;93.90;95522.59;4952496;28;20208;-84
2023/08/05 02:27:44;;;;;;;11.27;7.00;;;;;;;14.29;93.97;95518.53;4953580;28;20199;-84
2023/08/05 02:30:10;;;;;;;12.93;6.65;;;;;;;14.28;93.87;95521.31;4961397;28;20212;-84
2023/08/05 02:32:35;;;;;;;8.27;6.03;;;;;;;14.30;93.70;95517.53;4950720;28;20196;-83
2023/08/05 02:35:00;;;;;;;7.00;6.30;;;;;;;14.28;93.76;95516.09;4962595;28;20187;-84
2023/08/05 02:37:26;;;;;;;10.10;6.65;;;;;;;14.22;94.20;95516.75;4961969;28;20192;-84
2023/08/05 02:39:51;;;;;;;7.80;7.00;;;;;;;14.23;93.92;95515.78;4960527;28;20312;-84
2023/08/05 02:42:16;;;;;;;11.00;6.68;;;;;;;14.20;94.09;95509.09;4968064;28;20283;-83
2023/08/05 02:44:42;;;;;;;10.57;7.27;;;;;;;14.19;93.96;95510.09;4965991;28;20193;-84
2023/08/05 02:47:07;;;;;;;9.50;6.60;;;;;;;14.20;93.69;95506.47;4985440;28;20328;-84
2023/08/05 02:49:33;;;;;;;11.13;8.07;;;;;;;14.18;93.83;95511.06;4966028;28;20300;-84
2023/08/05 02:51:58;;;;;;;7.67;6.70;;;;;;;14.15;93.82;95511.41;4968910;28;20641;-84
2023/08/05 02:54:24;;;;;;;9.67;7.40;;;;;;;14.11;94.00;95510.13;4962134;28;20223;-85
2023/08/05 02:56:49;;;;;;;11.20;7.07;;;;;;;14.12;93.86;95507.34;4991469;28;20251;-83
2023/08/05 02:59:14;;;;;;;8.70;7.45;;;;;;;14.10;94.30;95504.09;4960306;28;20560;-84
2023/08/05 03:01:40;;;;;;;11.33;7.83;;;;;;;14.10;94.67;95511.09;4958914;28;20551;-84
2023/08/05 03:04:05;;;;;;;8.63;7.73;;;;;;;14.16;95.14;95521.69;4952012;28;20252;-84
2023/08/05 03:06:30;;;;;;;7.80;6.70;;;;;;;14.20;94.68;95526.56;4985697;28;20263;-84
2023/08/05 03:08:56;;;;;;;11.38;7.05;;;;;;;14.21;94.69;95522.97;4985445;28;20196;-84
2023/08/05 03:11:21;;;;;;;12.05;7.30;;;;;;;14.28;94.32;95506.44;4949971;29;20289;-84
2023/08/05 03:13:47;;;;;;;11.13;7.60;;;;;;;14.26;94.51;95505.00;4968484;28;20270;-84
2023/08/05 03:16:13;;;;;;;10.47;6.80;;;;;;;14.29;94.16;95497.63;4960289;28;20212;-84
2023/08/05 03:18:38;;;;;;;9.05;7.10;;;;;;;14.27;94.22;95498.78;4970483;28;20210;-84
2023/08/05 03:21:04;;;;;;;7.53;6.57;;;;;;;14.23;94.79;95502.75;4961232;28;20641;-84
2023/08/05 03:23:29;;;;;;;10.63;7.13;;;;;;;14.22;94.75;95491.44;4954794;28;20200;-83
2023/08/05 03:25:54;;;;;;;10.77;7.60;;;;;;;14.21;94.50;95502.06;4968944;28;20254;-84
2023/08/05 03:28:20;;;;;;;8.97;7.30;;;;;;;14.20;94.16;95509.09;4948339;28;20189;-83
2023/08/05 03:30:45;;;;;;;8.43;7.57;;;;;;;14.06;94.85;95505.41;4974273;28;20234;-84
2023/08/05 03:33:10;;;;;;;8.83;7.50;;;;;;;14.07;94.86;95506.22;4950913;28;20287;-83
2023/08/05 03:35:36;;;;;;;9.17;7.10;;;;;;;14.12;94.82;95517.78;4951125;28;20219;-83
2023/08/05 03:38:02;;;;;;;14.27;7.90;;;;;;;14.02;95.22;95524.19;4950997;28;20192;-86
2023/08/05 03:40:27;;;;;;;9.23;7.53;;;;;;;14.07;95.00;95532.34;4952046;28;20218;-85
2023/08/05 03:42:52;;;;;;;11.33;7.70;;;;;;;14.05;94.94;95539.53;4952272;28;20214;-84
2023/08/05 03:45:18;;;;;;;9.63;8.33;;;;;;;14.04;94.90;95536.09;4960508;28;20235;-84
2023/08/05 03:47:43;;;;;;;9.73;7.90;;;;;;;14.01;95.07;95536.44;4960950;28;20412;-84
2023/08/05 03:50:08;;;;;;;10.27;7.83;;;;;;;14.00;95.23;95539.22;4960104;28;20192;-84
2023/08/05 03:52:34;;;;;;;11.60;7.30;;;;;;;13.95;95.52;95541.50;4961480;28;20243;-85
2023/08/05 03:54:59;;;;;;;9.07;7.67;;;;;;;13.96;95.52;95556.19;4969376;28;20181;-84
2023/08/05 03:57:25;;;;;;;9.87;7.67;;;;;;;13.96;95.86;95548.34;4962397;28;20211;-84
2023/08/05 03:59:50;;;;;;;9.97;8.13;;;;;;;14.01;95.73;95562.53;4960323;28;20207;-84
2023/08/05 04:02:16;;;;;;;12.07;8.07;;;;;;;14.03;95.84;95567.59;4959437;28;20248;-85
2023/08/05 04:04:42;;;;;;;14.97;9.07;;;;;;;14.02;95.76;95569.38;4957589;28;20605;-84
2023/08/05 04:07:08;;;;;;;9.70;8.63;;;;;;;14.04;95.57;95564.81;4959343;28;20222;-85
2023/08/05 04:09:35;;;;;;;10.23;8.60;;;;;;;14.13;95.19;95555.16;4968902;28;20192;-85
2023/08/05 04:12:03;;;;;;;12.47;9.10;;;;;;;14.12;95.23;95556.13;4956653;28;20271;-84
2023/08/05 04:14:29;;;;;;;11.80;8.27;;;;;;;14.12;95.40;95558.75;4939243;28;20185;-85
2023/08/05 04:16:55;;;;;;;11.20;8.33;;;;;;;14.17;95.05;95554.66;4947309;28;20277;-84
2023/08/05 04:19:22;;;;;;;8.90;7.07;;;;;;;14.18;95.04;95555.47;4965234;28;20184;-84
2023/08/05 04:21:47;;;;;;;9.50;7.73;;;;;;;14.22;94.74;95558.53;4938357;28;20284;-84
2023/08/05 04:24:18;;;;;;;9.50;7.57;;;;;;;14.20;94.56;95560.50;4960831;28;20271;-84
2023/08/05 04:26:43;;;;;;;9.20;8.10;;;;;;;14.23;94.34;95561.00;4959629;28;20258;-84
2023/08/05 04:29:10;;;;;;;8.63;7.70;;;;;;;14.27;94.44;95557.06;4972789;28;20649;-86
2023/08/05 04:31:37;;;;;;;9.30;8.30;;;;;;;14.23;94.47;95555.78;4966983;28;20208;-85
2023/08/05 04:34:02;;;;;;;13.73;7.77;;;;;;;14.24;94.19;95562.63;4944030;28;20196;-86
2023/08/05 04:36:28;;;;;;;11.33;8.10;;;;;;;14.24;94.30;95551.38;4967081;28;20204;-84
2023/08/05 04:38:53;;;;;;;12.20;7.57;;;;;;;14.26;94.55;95554.63;4948402;28;20255;-85
2023/08/05 04:41:18;;;;;;;8.50;7.63;;;;;;;14.25;93.94;95555.59;4967461;28;20184;-85
2023/08/05 04:43:44;;;;;;;8.60;7.07;;;;;;;14.29;93.73;95560.31;4942374;28;20201;-85
2023/08/05 04:46:11;;;;;;;10.30;7.43;;;;;;;14.38;93.58;95563.69;4947694;28;20284;-85
2023/08/05 04:48:36;;;;;;;10.33;7.73;;;;;;;14.41;93.60;95568.59;4957849;28;20200;-85
2023/08/05 04:51:01;;;;;;;9.00;7.53;;;;;;;14.48;93.85;95569.56;4953949;28;20281;-85
2023/08/05 04:53:27;;;;;;;7.77;7.00;;;;;;;14.52;93.75;95572.66;4953890;28;20189;-84
2023/08/05 04:55:52;;;;;;;7.90;7.10;;;;;;;14.52;93.12;95570.88;4969549;28;20218;-85
2023/08/05 04:58:18;;;;;;;11.07;7.03;;;;;;;14.54;92.94;95568.88;4957377;28;20192;-85
2023/08/05 05:00:43;;;;;;;8.83;6.53;;;;;;;14.54;92.76;95568.88;4958753;28;20283;-84
2023/08/05 05:03:08;;;;;;;8.40;7.20;;;;;;;14.62;92.37;95573.25;4964844;28;20204;-85
2023/08/05 05:05:35;;;;;;;9.30;6.73;;;;;;;14.73;92.19;95575.47;4961518;28;20219;-85
2023/08/05 05:08:00;;;;;;;6.80;6.20;;;;;;;14.74;92.38;95584.94;4950854;28;20180;-85
2023/08/05 05:10:26;;;;;;;8.97;6.80;;;;;;;14.74;92.49;95590.16;4963897;28;20723;-85
2023/08/05 05:12:51;;;;;;;10.03;6.77;;;;;;;14.78;92.20;95593.28;4956366;28;20683;-84
2023/08/05 05:15:19;;;;;;;9.40;6.23;;;;;;;14.81;91.87;95591.13;4952112;28;20208;-85
2023/08/05 05:17:44;;;;;;;8.43;6.27;;;;;;;14.85;91.85;95589.78;4947622;28;20191;-84
2023/08/05 05:20:10;;;;;;;8.33;6.83;;;;;;;14.91;91.21;95585.66;4965957;28;20725;-85
2023/08/05 05:22:36;;;;;;;9.13;7.65;;;;;;;14.93;91.11;95587.13;4970555;28;20246;-85
2023/08/05 05:25:01;;;;;;;10.45;7.57;;;;;;;14.92;91.03;95589.91;4964089;28;20184;-84
2023/08/05 05:27:26;;;;;;;9.77;7.28;;;;;;;15.10;90.63;95577.34;4956552;28;20187;-85
2023/08/05 05:29:52;;;;;;;12.02;7.28;;;;;;;15.21;89.94;95576.16;4974292;28;20195;-86
2023/08/05 05:32:17;;;;;;;11.60;6.50;;;;;;;15.37;89.02;95580.41;4954565;28;20290;-85
2023/08/05 05:34:42;;;;;;;8.93;6.33;;;;;;;15.43;87.76;95582.34;4956439;28;20287;-85
2023/08/05 05:37:08;;;;;;;10.30;7.03;;;;;;;15.50;88.41;95585.88;4954312;28;20254;-85
2023/08/05 05:39:33;;;;;;;8.25;6.15;;;;;;;15.76;87.29;95575.03;4954932;28;20191;-85
2023/08/05 05:41:59;;;;;;;8.48;5.57;;;;;;;15.83;85.94;95582.00;4963976;28;20250;-85
2023/08/05 05:44:26;;;;;;;9.63;6.10;;;;;;;16.02;85.62;95577.22;4963308;28;20195;-84
2023/08/05 05:46:52;;;;;;;7.57;6.78;;;;;;;16.24;84.00;95565.00;4954948;28;20209;-85
2023/08/05 05:49:18;;;;;;;7.95;6.30;;;;;;;16.37;83.49;95562.56;4955727;28;20250;-84
2023/08/05 05:51:45;;;;;;;10.57;6.75;;;;;;;16.38;83.30;95567.63;4956306;28;20224;-85
2023/08/05 05:54:11;;;;;;;6.55;5.85;;;;;;;16.68;81.97;95557.91;4954033;28;20211;-85
2023/08/05 05:56:36;;;;;;;9.57;6.15;;;;;;;16.77;81.01;95550.75;4949208;28;20251;-85
2023/08/05 05:59:01;;;;;;;7.85;5.57;;;;;;;16.74;79.42;95556.38;4981603;28;20187;-84
2023/08/05 06:01:27;;;;;;;12.15;5.28;;;;;;;17.03;78.79;95565.13;4962177;28;20219;-86
2023/08/05 06:03:52;;;;;;;11.85;6.35;;;;;;;17.28;78.81;95556.72;4962888;28;20207;-86
2023/08/05 06:06:18;;;;;;;9.10;5.40;;;;;;;17.38;77.75;95568.69;4951429;28;20270;-87
2023/08/05 06:08:46;;;;;;;6.57;5.78;;;;;;;17.64;76.52;95561.03;4993790;28;20195;-85
2023/08/05 06:11:11;;;;;;;8.02;5.55;;;;;;;17.65;75.69;95564.47;4974524;28;20207;-83
2023/08/05 06:13:37;;;;;;;9.50;5.07;;;;;;;17.75;75.56;95563.16;4935981;29;20189;-84
2023/08/05 06:16:03;;;;;;;6.20;5.55;;;;;;;17.89;73.67;95573.78;4952007;28;20271;-85
2023/08/05 06:18:28;;;;;;;13.48;5.70;;;;;;;18.10;73.34;95563.97;4977763;28;20183;-86
2023/08/05 06:20:54;;;;;;;6.75;5.32;;;;;;;18.21;71.81;95567.91;4953637;28;20209;-86
2023/08/05 06:23:19;;;;;;;6.45;4.75;;;;;;;18.09;72.53;95558.94;4960861;28;20196;-85
2023/08/05 06:25:45;;;;;;;5.80;4.88;;;;;;;18.62;70.00;95559.16;4970061;28;20289;-86
2023/08/05 06:28:10;;;;;;;6.05;4.85;;;;;;;19.33;67.37;95556.94;4935948;28;20202;-86
2023/08/05 06:30:42;;;;;;;6.20;5.03;;;;;;;19.67;65.25;95558.59;4950718;28;20584;-85
2023/08/05 06:33:07;;;;;;;6.70;4.60;;;;;;;19.49;65.95;95559.16;4953409;28;20705;-86
2023/08/05 06:35:34;;;;;;;9.95;4.88;;;;;;;20.11;63.75;95558.94;4977931;28;20254;-84
2023/08/05 06:37:59;;;;;;;9.13;4.55;;;;;;;22.11;55.29;95554.94;4975123;28;20180;-85
2023/08/05 06:40:24;;;;;;;6.03;4.35;;;;;;;22.83;52.42;95551.44;4954655;28;20674;-84
2023/08/05 06:42:50;;;;;;;4.40;3.70;;;;;;;23.42;50.39;95544.53;4959167;28;20190;-85
2023/08/05 06:45:16;;;;;;;5.82;4.18;;;;;;;24.62;48.26;95545.09;4952807;28;20266;-84
2023/08/05 06:47:41;;;;;;;5.25;3.60;;;;;;;23.48;49.40;95545.44;4954534;28;20207;-87
2023/08/05 06:50:07;;;;;;;5.93;4.40;;;;;;;24.37;46.50;95548.03;4944570;29;20215;-87
2023/08/05 06:52:33;;;;;;;5.80;4.45;;;;;;;24.55;45.51;95548.69;4942750;28;20195;-86
2023/08/05 06:55:02;;;;;;;4.80;4.28;;;;;;;24.46;45.81;95546.63;4965552;28;20189;-86
2023/08/05 06:57:28;;;;;;;6.00;4.35;;;;;;;23.46;47.79;95543.03;4973051;28;20199;-87
2023/08/05 06:59:54;;;;;;;4.68;4.22;;;;;;;23.58;48.99;95534.28;4940668;29;20566;-86
2023/08/05 07:02:19;;;;;;;5.78;4.32;;;;;;;23.63;46.88;95542.41;4963873;28;20262;-86
2023/08/05 07:04:44;;;;;;;6.03;4.05;;;;;;;23.45;48.54;95544.06;4951147;28;20192;-86
2023/08/05 07:07:10;;;;;;;7.15;4.40;;;;;;;23.56;47.80;95537.16;4954704;28;20216;-88
2023/08/05 07:09:37;;;;;;;6.45;4.10;;;;;;;24.32;46.39;95540.00;4960007;28;20565;-87
2023/08/05 07:12:02;;;;;;;4.80;4.40;;;;;;;24.33;45.57;95541.59;4960911;28;20279;-86
2023/08/05 07:14:28;;;;;;;5.05;4.40;;;;;;;24.62;44.83;95545.91;4957093;28;20591;-85
2023/08/05 07:16:53;;;;;;;5.10;4.25;;;;;;;23.28;47.82;95534.34;4945670;28;20213;-87
2023/08/05 07:19:19;;;;;;;7.78;3.95;;;;;;;24.17;46.68;95538.59;4949951;28;20238;-83
2023/08/05 07:21:44;;;;;;;6.88;4.47;;;;;;;24.78;44.81;95539.06;4986152;28;20737;-84
2023/08/05 07:24:09;;;;;;;5.13;3.85;;;;;;;25.03;44.06;95547.53;4968748;28;20188;-84
2023/08/05 07:26:35;;;;;;;5.95;3.90;;;;;;;24.66;45.03;95547.06;4968554;28;20203;-84
2023/08/05 07:29:00;;;;;;;5.63;4.03;;;;;;;23.72;45.94;95554.28;4960075;28;20215;-83
2023/08/05 07:31:25;;;;;;;4.32;3.92;;;;;;;23.98;46.67;95553.03;4959434;28;20716;-84
2023/08/05 07:33:51;;;;;;;4.13;3.35;;;;;;;24.16;45.44;95552.09;4958571;28;20222;-84
2023/08/05 07:36:16;;;;;;;3.85;3.45;;;;;;;24.42;45.83;95545.50;4946275;28;20238;-85
2023/08/05 07:38:44;;;;;;;4.05;3.55;;;;;;;24.71;43.66;95543.69;4951977;28;20691;-85
2023/08/05 07:41:13;;;;;;;6.18;3.60;;;;;;;24.36;45.13;95541.13;4951570;28;20180;-85
2023/08/05 07:43:39;;;;;;;5.38;3.88;;;;;;;24.75;44.76;95544.84;4961578;28;20200;-83
2023/08/05 07:46:05;;;;;;;4.22;3.72;;;;;;;24.12;45.79;95540.31;4946721;28;20221;-84
2023/08/05 07:48:35;;;;;;;5.18;3.55;;;;;;;24.75;45.13;95539.53;4960647;28;20214;-84
2023/08/05 07:51:01;;;;;;;4.63;3.60;;;;;;;23.80;47.43;95538.03;4959074;28;20208;-84
2023/08/05 07:53:29;;;;;;;3.88;3.40;;;;;;;23.67;46.83;95530.28;4958423;28;20191;-85
2023/08/05 07:55:55;;;;;;;4.57;3.80;;;;;;;23.29;47.06;95525.38;4962222;28;20685;-81
2023/08/05 07:58:21;;;;;;;4.93;3.35;;;;;;;22.64;48.79;95522.59;4968850;28;20199;-82
2023/08/05 08:00:46;;;;;;;3.65;3.35;;;;;;;22.64;50.13;95528.69;4948041;28;20189;-83
2023/08/05 08:03:11;;;;;;;3.60;3.30;;;;;;;21.47;51.90;95533.13;4961212;28;20253;-82
2023/08/05 08:05:37;;;;;;;4.25;3.17;;;;;;;22.29;52.03;95531.97;4957560;28;20220;-83
2023/08/05 08:08:02;;;;;;;3.78;3.38;;;;;;;21.69;53.32;95526.44;4955205;28;20195;-83
2023/08/05 08:10:28;;;;;;;6.03;3.60;;;;;;;20.89;55.91;95522.72;4974422;28;20203;-82
2023/08/05 08:12:53;;;;;;;3.90;3.60;;;;;;;21.38;53.54;95529.97;4956756;28;20184;-80
2023/08/05 08:15:20;;;;;;;4.75;3.53;;;;;;;20.78;56.60;95528.69;4966288;28;20208;-81
2023/08/05 08:17:45;;;;;;;4.22;3.25;;;;;;;21.42;55.78;95530.31;4966383;28;20187;-80
2023/08/05 08:20:10;;;;;;;9.18;3.80;;;;;;;21.70;54.39;95528.03;4968680;28;20760;-80
2023/08/05 08:22:36;;;;;;;4.75;3.33;;;;;;;21.48;53.16;95529.47;4970744;28;20198;-84
2023/08/05 08:25:02;;;;;;;4.15;3.00;;;;;;;21.80;52.45;95521.44;4951626;28;20185;-84
2023/08/05 08:27:27;;;;;;;4.15;3.47;;;;;;;21.53;53.13;95521.69;4993271;28;20724;-84
2023/08/05 08:29:53;;;;;;;4.78;4.15;;;;;;;21.65;53.34;95516.53;4953142;29;20279;-84
2023/08/05 08:32:18;;;;;;;4.20;3.65;;;;;;;21.83;54.41;95513.91;4961276;28;20304;-83
2023/08/05 08:34:43;;;;;;;4.15;3.80;;;;;;;22.03;53.34;95516.34;4964362;28;20198;-86
2023/08/05 08:37:09;;;;;;;3.95;3.55;;;;;;;22.19;52.24;95505.22;4962036;28;20326;-86
2023/08/05 08:39:34;;;;;;;4.45;3.30;;;;;;;21.59;54.04;95515.56;4969145;28;20192;-85
2023/08/05 08:42:00;;;;;;;4.28;3.88;;;;;;;20.63;55.02;95513.94;4967506;28;20188;-87
2023/08/05 08:44:27;;;;;;;6.60;4.05;;;;;;;20.99;56.30;95507.22;4976968;28;20185;-86
2023/08/05 08:46:53;;;;;;;7.20;4.00;;;;;;;21.15;54.91;95504.09;4983190;28;20199;-85
2023/08/05 08:49:19;;;;;;;3.83;3.30;;;;;;;21.74;54.71;95505.47;4980174;28;20211;-89
2023/08/05 08:51:48;;;;;;;5.85;3.10;;;;;;;21.36;56.44;95510.84;4946651;28;20225;-89
2023/08/05 08:54:14;;;;;;;5.72;3.92;;;;;;;20.69;57.20;95503.56;4959018;28;20212;-88
2023/08/05 08:56:40;;;;;;;4.53;3.95;;;;;;;20.69;57.33;95493.03;5008696;23;20251;-90
2023/08/05 08:59:07;;;;;;;4.90;3.70;;;;;;;20.14;58.01;95495.25;5125378;23;20219;-86
2023/08/05 09:01:38;;;;;;;21.05;4.72;;;;;;;20.68;58.12;95492.22;4984718;28;20175;-88
2023/08/05 09:04:05;;;;;;;11.05;3.95;;;;;;;20.80;55.97;95493.16;5048345;23;20340;-89
2023/08/05 09:06:31;;;;;;;3.78;3.00;;;;;;;20.89;53.13;95504.25;4998482;28;20268;-90
2023/08/05 09:08:56;;;;;;;5.20;3.08;;;;;;;21.04;55.61;95502.13;4980612;28;20185;-89
2023/08/05 09:11:22;;;;;;;4.78;3.33;;;;;;;21.66;55.41;95497.00;4973787;28;20216;-87
2023/08/05 09:13:47;;;;;;;3.95;3.45;;;;;;;21.31;54.14;95492.22;5119089;23;20211;-87
2023/08/05 09:16:13;;;;;;;5.63;3.30;;;;;;;21.07;53.34;95498.25;4982428;28;20204;-88
2023/08/05 09:18:43;;;;;;;4.57;2.97;;;;;;;21.11;53.74;95499.44;4984508;28;20210;-88
2023/08/05 09:21:09;;;;;;;39.85;5.40;;;;;;;21.28;52.45;95491.81;5000494;28;20192;-88
2023/08/05 09:23:44;;;;;;;30.88;5.07;;;;;;;21.28;53.07;95491.81;4984204;28;20190;-88
2023/08/05 09:26:11;;;;;;;4.25;3.15;;;;;;;20.94;54.86;95483.31;4983023;28;20213;-89
2023/08/05 09:28:36;;;;;;;3.40;3.10;;;;;;;21.11;53.43;95487.03;4964235;28;20224;-87
2023/08/05 09:31:23;;;;;;;4.13;3.38;;;;;;;21.36;55.01;95496.84;4981885;28;20209;-87
2023/08/05 09:33:49;;;;;;;5.22;3.85;;;;;;;21.76;55.02;95487.53;4968325;28;20670;-88
2023/08/05 09:36:33;;;;;;;6.47;3.67;;;;;;;21.69;55.20;95492.06;4952656;28;20330;-88
2023/08/05 09:39:01;;;;;;;4.13;3.22;;;;;;;21.42;52.57;95493.34;4959535;28;20223;-89
2023/08/05 09:41:31;;;;;;;3.83;3.33;;;;;;;21.29;52.68;95493.44;4963064;28;20275;-88
2023/08/05 09:43:58;;;;;;;4.82;3.50;;;;;;;21.35;53.10;95487.31;4957949;28;20253;-85
2023/08/05 09:46:27;;;;;;;3.58;3.22;;;;;;;21.32;52.83;95490.38;4962151;28;20253;-81
2023/08/05 09:48:54;;;;;;;3.58;3.08;;;;;;;21.43;52.29;95495.75;4980648;28;20648;-80
2023/08/05 09:51:20;;;;;;;3.53;3.17;;;;;;;21.57;52.43;95485.91;4978935;28;20219;-82
2023/08/05 09:53:51;;;;;;;5.72;3.03;;;;;;;21.56;51.86;95479.00;4964468;28;20196;-82
2023/08/05 09:56:20;;;;;;;3.28;2.88;;;;;;;21.39;52.87;95481.38;4986126;28;20204;-86
2023/08/05 09:58:47;;;;;;;3.78;3.25;;;;;;;21.04;52.19;95477.56;4989524;28;20207;-86
2023/08/05 10:01:12;;;;;;;5.03;3.90;;;;;;;21.23;54.70;95473.97;4972345;28;20575;-87
2023/08/05 10:03:38;;;;;;;3.65;2.92;;;;;;;21.42;53.43;95473.00;4958922;28;20190;-85
2023/08/05 10:06:08;;;;;;;3.95;3.03;;;;;;;21.25;52.56;95469.28;4979810;28;20546;-86
2023/08/05 10:08:39;;;;;;;3.70;3.30;;;;;;;20.67;54.42;95469.47;4985883;28;20195;-85
2023/08/05 10:11:05;;;;;;;5.28;3.33;;;;;;;20.68;53.33;95465.03;4975337;28;20207;-86
2023/08/05 10:13:44;;;;;;;3.55;3.05;;;;;;;20.80;53.98;95458.03;4982523;28;20219;-84
2023/08/05 10:16:10;;;;;;;4.75;3.13;;;;;;;20.90;52.62;95453.88;4984448;28;20302;-84
2023/08/05 10:18:37;;;;;;;4.90;3.25;;;;;;;21.29;53.41;95467.03;4969661;28;20191;-84
2023/08/05 10:21:05;;;;;;;4.75;2.33;;;;;;;21.49;52.23;95463.19;4967174;28;20179;-83
2023/08/05 10:23:33;;;;;;;4.75;2.22;;;;;;;21.61;50.08;95450.06;4964619;28;20188;-83
2023/08/05 10:26:03;;;;;;;2.53;2.30;;;;;;;21.82;48.49;95446.22;4960414;28;20296;-83
2023/08/05 10:28:35;;;;;;;4.68;2.55;;;;;;;21.56;49.56;95444.66;4977507;28;20194;-83
2023/08/05 10:31:05;;;;;;;6.57;2.30;;;;;;;21.74;48.54;95444.66;4977704;28;20207;-87
2023/08/05 10:33:31;;;;;;;24.85;3.63;;;;;;;21.76;50.59;95432.03;4955650;28;20271;-87
2023/08/05 10:36:05;;;;;;;5.65;2.67;;;;;;;21.42;50.96;95435.22;4959863;28;20210;-86
2023/08/05 10:38:40;;;;;;;3.83;2.70;;;;;;;22.00;50.47;95437.47;4963479;28;20218;-87
2023/08/05 10:41:06;;;;;;;3.45;2.67;;;;;;;21.27;52.42;95432.91;4974347;28;20709;-88
2023/08/05 10:43:31;;;;;;;3.13;2.53;;;;;;;21.50;52.78;95429.66;4962171;28;20291;-87
2023/08/05 10:45:58;;;;;;;4.35;2.55;;;;;;;21.35;52.24;95426.56;4979140;28;20210;-88
2023/08/05 10:48:49;;;;;;;2.88;2.40;;;;;;;21.71;51.76;95423.13;4981812;28;20207;-87
2023/08/05 10:51:19;;;;;;;3.53;2.50;;;;;;;;;;4975229;28;20204;-87
2023/08/05 10:53:58;;;;;;;5.82;2.20;;;;;;;22.20;48.90;95416.91;4971842;28;20560;-87
2023/08/05 10:56:34;;;;;;;2.60;2.40;;;;;;;22.16;48.76;95409.63;4958378;28;20207;-86
2023/08/05 10:59:01;;;;;;;2.95;2.03;;;;;;;21.03;51.25;95416.03;4979204;28;20869;-87
2023/08/05 11:01:55;;;;;;;3.80;2.80;;;;;;;21.54;50.92;95414.97;4981168;28;20207;-83
2023/08/05 11:04:32;;;;;;;5.20;2.50;;;;;;;21.15;51.96;95409.03;4955424;28;20212;-80
2023/08/05 11:07:02;;;;;;;4.40;2.50;;;;;;;21.11;52.11;95404.38;4977914;28;20245;-85
2023/08/05 11:09:32;;;;;;;3.13;2.58;;;;;;;21.02;51.60;95409.13;4978452;28;20190;-83
2023/08/05 11:11:57;;;;;;;3.63;2.42;;;;;;;20.74;51.66;95398.19;4975924;28;20665;-82
2023/08/05 11:14:23;;;;;;;2.58;2.10;;;;;;;21.28;51.04;95389.63;4973307;28;20203;-83
2023/08/05 11:16:48;;;;;;;2.53;2.30;;;;;;;21.36;51.19;95391.19;4960828;28;20231;-82
2023/08/05 11:19:15;;;;;;;2.30;2.10;;;;;;;21.53;49.85;95383.50;4979029;28;20187;-83
2023/08/05 11:21:44;;;;;;;2.78;2.13;;;;;;;21.55;48.70;95381.44;4972146;28;20199;-82
2023/08/05 11:24:19;;;;;;;2.95;2.45;;;;;;;22.02;49.64;95385.19;4970407;28;20180;-84
2023/08/05 11:26:46;;;;;;;3.72;2.13;;;;;;;22.02;49.50;95383.34;4972995;28;20250;-83
2023/08/05 11:29:13;;;;;;;2.35;2.15;;;;;;;21.17;49.88;95388.47;4995441;28;20247;-82